Time;durP1;ratioP1;P1;durP2;ratioP2;P2;SDS_P1;SDS_P2;PMS_P1;PMS_P2;Temp;Humidity;BMP_temperature;BMP_pressure;BME280_temperature;BME280_humidity;BME280_pressure;Samples;Min_cycle;Max_cycle;Signal;HPM_P1;HPM_P2
2023/05/19 00:00:56;;;;;;;17.37;6.27;;;9.60;99.90;;;;;;5013070;28;20251;-84
2023/05/19 00:03:23;;;;;;;12.10;5.17;;;9.50;99.90;;;;;;5012462;28;20072;-84
2023/05/19 00:05:52;;;;;;;12.83;5.50;;;9.50;99.90;;;;;;5014422;28;20192;-84
2023/05/19 00:08:19;;;;;;;12.57;5.50;;;9.40;99.90;;;;;;5014602;28;20056;-84
2023/05/19 00:10:45;;;;;;;11.33;5.50;;;9.40;99.90;;;;;;5015802;28;20065;-84
2023/05/19 00:13:11;;;;;;;15.63;5.60;;;9.40;99.90;;;;;;5014437;28;20030;-84
2023/05/19 00:15:37;;;;;;;17.83;6.67;;;9.40;99.90;;;;;;5015931;28;20040;-84
2023/05/19 00:18:03;;;;;;;18.77;6.33;;;9.40;99.90;;;;;;5015833;28;20022;-84
2023/05/19 00:20:28;;;;;;;12.97;5.60;;;9.30;99.90;;;;;;5014523;28;20164;-84
2023/05/19 00:22:54;;;;;;;16.63;5.73;;;9.30;99.90;;;;;;5015115;28;20021;-85
2023/05/19 00:25:19;;;;;;;12.37;5.80;;;9.40;99.90;;;;;;5014928;28;20026;-86
2023/05/19 00:27:45;;;;;;;15.73;5.70;;;9.40;99.90;;;;;;5014624;28;20026;-84
2023/05/19 00:30:11;;;;;;;18.77;7.43;;;9.40;99.90;;;;;;5014928;28;20180;-85
2023/05/19 00:32:36;;;;;;;17.00;5.50;;;9.30;99.90;;;;;;5014090;28;20109;-84
2023/05/19 00:35:02;;;;;;;18.40;6.60;;;9.30;99.90;;;;;;5015785;28;20034;-86
2023/05/19 00:37:28;;;;;;;16.03;5.67;;;9.30;99.90;;;;;;5015601;28;20068;-85
2023/05/19 00:39:53;;;;;;;16.93;5.17;;;9.30;99.90;;;;;;5015081;28;20053;-85
2023/05/19 00:42:20;;;;;;;12.53;5.03;;;9.30;99.90;;;;;;5014232;28;20040;-84
2023/05/19 00:44:45;;;;;;;17.80;6.37;;;9.30;99.90;;;;;;5014275;28;20450;-84
2023/05/19 00:47:11;;;;;;;11.67;5.27;;;9.30;99.90;;;;;;5015499;28;20112;-85
2023/05/19 00:49:37;;;;;;;15.63;5.57;;;9.20;99.90;;;;;;5015084;28;20041;-85
2023/05/19 00:52:04;;;;;;;14.03;5.50;;;9.20;99.90;;;;;;5014309;28;20068;-84
2023/05/19 00:54:31;;;;;;;22.27;6.00;;;9.10;99.90;;;;;;5016927;28;20030;-85
2023/05/19 00:56:57;;;;;;;16.73;5.27;;;9.10;99.90;;;;;;5014651;28;20064;-85
2023/05/19 00:59:25;;;;;;;13.63;5.73;;;9.10;99.90;;;;;;5017822;28;20087;-84
2023/05/19 01:01:51;;;;;;;12.17;5.07;;;9.10;99.90;;;;;;5016606;28;20022;-84
2023/05/19 01:04:20;;;;;;;16.13;5.70;;;9.00;99.90;;;;;;5015220;28;20041;-86
2023/05/19 01:06:48;;;;;;;24.13;6.70;;;9.00;99.90;;;;;;4997167;28;20034;-84
2023/05/19 01:09:14;;;;;;;13.10;5.30;;;9.00;99.90;;;;;;5014429;28;20100;-84
2023/05/19 01:11:40;;;;;;;15.40;5.50;;;9.00;99.90;;;;;;5014716;28;20033;-86
2023/05/19 01:14:05;;;;;;;13.07;5.53;;;8.90;99.90;;;;;;5015214;28;20433;-84
2023/05/19 01:16:39;;;;;;;14.40;5.53;;;8.90;99.90;;;;;;5015434;28;20474;-85
2023/05/19 01:19:24;;;;;;;18.83;6.00;;;8.90;99.90;;;;;;5014516;28;20057;-85
2023/05/19 01:21:52;;;;;;;14.33;5.37;;;8.90;99.90;;;;;;5013570;28;20029;-85
2023/05/19 01:24:45;;;;;;;16.53;5.77;;;8.90;99.90;;;;;;5014528;28;20041;-84
2023/05/19 01:27:58;;;;;;;14.47;5.90;;;8.90;99.90;;;;;;4997536;28;20383;-85
2023/05/19 01:30:29;;;;;;;12.63;5.20;;;8.80;99.90;;;;;;5014027;28;20042;-84
2023/05/19 01:32:59;;;;;;;14.20;5.23;;;8.70;99.90;;;;;;5013606;28;20099;-85
2023/05/19 01:35:26;;;;;;;12.73;5.03;;;8.70;99.90;;;;;;5015974;28;20056;-85
2023/05/19 01:37:55;;;;;;;10.47;5.30;;;8.70;99.90;;;;;;5014047;28;21037;-84
2023/05/19 01:40:22;;;;;;;12.47;5.70;;;8.70;99.90;;;;;;5014102;28;20029;-84
2023/05/19 01:42:49;;;;;;;14.73;5.30;;;8.70;99.90;;;;;;5014449;28;20061;-85
2023/05/19 01:45:16;;;;;;;15.00;4.83;;;8.60;99.90;;;;;;5013459;28;20420;-84
2023/05/19 01:47:45;;;;;;;12.80;5.50;;;8.70;99.90;;;;;;5015739;28;20533;-85
2023/05/19 01:50:10;;;;;;;14.33;5.30;;;8.60;99.90;;;;;;5017391;28;20573;-85
2023/05/19 01:52:36;;;;;;;10.33;5.10;;;8.60;99.90;;;;;;5017344;28;20108;-84
2023/05/19 01:55:02;;;;;;;12.50;5.17;;;8.60;99.90;;;;;;5016716;28;20038;-85
2023/05/19 01:57:57;;;;;;;14.30;4.87;;;8.60;99.90;;;;;;5016861;28;20044;-84
2023/05/19 02:01:01;;;;;;;13.38;5.22;;;8.60;99.90;;;;;;5017053;28;20025;-86
2023/05/19 02:03:47;;;;;;;16.23;5.33;;;8.60;99.90;;;;;;5015846;28;20033;-84
2023/05/19 02:06:29;;;;;;;15.00;5.83;;;8.50;99.90;;;;;;5016807;28;20623;-86
2023/05/19 02:09:27;;;;;;;11.57;5.70;;;8.50;99.90;;;;;;5016690;28;20034;-84
2023/05/19 02:11:54;;;;;;;12.30;5.30;;;8.50;99.90;;;;;;5017074;28;20112;-86
2023/05/19 02:14:30;;;;;;;9.83;4.80;;;8.50;99.90;;;;;;5016742;28;20172;-84
2023/05/19 02:16:58;;;;;;;11.47;5.03;;;8.50;99.90;;;;;;5015691;28;20029;-84
2023/05/19 02:19:30;;;;;;;11.13;5.07;;;8.50;99.90;;;;;;5015076;28;20034;-85
2023/05/19 02:21:59;;;;;;;12.43;5.60;;;8.40;99.90;;;;;;5014933;28;20628;-84
2023/05/19 02:24:25;;;;;;;13.47;5.53;;;8.40;99.90;;;;;;5015514;28;20036;-85
2023/05/19 02:26:51;;;;;;;16.47;5.87;;;8.40;99.90;;;;;;5017224;28;21319;-84
2023/05/19 02:29:17;;;;;;;14.43;5.53;;;8.40;99.90;;;;;;5015467;28;20045;-86
2023/05/19 02:31:43;;;;;;;15.30;5.73;;;8.40;99.90;;;;;;5015762;28;20033;-84
2023/05/19 02:34:08;;;;;;;13.13;5.27;;;8.40;99.90;;;;;;5017162;28;20220;-85
2023/05/19 02:36:38;;;;;;;16.27;5.33;;;8.40;99.90;;;;;;5018034;28;20117;-84
2023/05/19 02:39:03;;;;;;;13.37;5.77;;;8.40;99.90;;;;;;5018458;28;20036;-86
2023/05/19 02:41:30;;;;;;;11.43;5.50;;;8.30;99.90;;;;;;5018307;28;20029;-85
2023/05/19 02:43:56;;;;;;;13.20;5.60;;;8.40;99.90;;;;;;5015693;28;20103;-85
2023/05/19 02:46:22;;;;;;;14.53;5.50;;;8.40;99.90;;;;;;5016904;28;20075;-84
2023/05/19 02:48:48;;;;;;;15.30;5.30;;;8.30;99.90;;;;;;5017680;28;20065;-85
2023/05/19 02:51:13;;;;;;;16.57;5.73;;;8.30;99.90;;;;;;5017752;28;20034;-85
2023/05/19 02:53:39;;;;;;;11.27;4.77;;;8.30;99.90;;;;;;5016346;28;20045;-84
2023/05/19 02:56:05;;;;;;;16.97;5.53;;;8.30;99.90;;;;;;5017613;28;20056;-85
2023/05/19 02:58:30;;;;;;;14.87;5.73;;;8.40;99.90;;;;;;5017938;28;20021;-86
2023/05/19 03:00:56;;;;;;;13.97;5.93;;;8.40;99.90;;;;;;5019568;28;20029;-84
2023/05/19 03:03:21;;;;;;;16.37;5.97;;;8.30;99.90;;;;;;5016646;28;20112;-85
2023/05/19 03:05:47;;;;;;;12.33;5.43;;;8.30;99.90;;;;;;5018538;28;20367;-85
2023/05/19 03:08:12;;;;;;;16.33;5.33;;;8.30;99.90;;;;;;5015316;28;20041;-85
2023/05/19 03:10:38;;;;;;;11.47;5.53;;;8.30;99.90;;;;;;5015647;28;20045;-84
2023/05/19 03:13:04;;;;;;;12.97;5.97;;;8.30;99.90;;;;;;5014520;28;20033;-85
2023/05/19 03:15:29;;;;;;;13.63;5.77;;;8.30;99.90;;;;;;5016337;28;20097;-85
2023/05/19 03:17:55;;;;;;;13.87;5.37;;;8.30;99.90;;;;;;5017673;28;20524;-84
2023/05/19 03:20:21;;;;;;;13.07;5.53;;;8.30;99.90;;;;;;5015484;28;20037;-84
2023/05/19 03:22:47;;;;;;;11.27;5.43;;;8.30;99.90;;;;;;5015164;28;20025;-85
2023/05/19 03:25:12;;;;;;;16.80;5.90;;;8.30;99.90;;;;;;5015407;28;20037;-85
2023/05/19 03:27:38;;;;;;;17.20;5.80;;;8.30;99.90;;;;;;5015707;28;20032;-85
2023/05/19 03:30:04;;;;;;;10.70;5.73;;;8.30;99.90;;;;;;5016617;28;20138;-84
2023/05/19 03:32:31;;;;;;;13.97;6.27;;;8.30;99.90;;;;;;5014638;28;20139;-83
2023/05/19 03:34:57;;;;;;;14.33;5.97;;;8.30;99.90;;;;;;5015790;28;20042;-84
2023/05/19 03:37:23;;;;;;;14.63;6.17;;;8.30;99.90;;;;;;5015134;28;20043;-84
2023/05/19 03:39:48;;;;;;;13.97;5.57;;;8.30;99.90;;;;;;5015750;28;20162;-84
2023/05/19 03:42:14;;;;;;;15.37;6.23;;;8.30;99.90;;;;;;5015193;28;20518;-85
2023/05/19 03:44:40;;;;;;;14.13;6.07;;;8.30;99.90;;;;;;5014164;28;20033;-85
2023/05/19 03:47:06;;;;;;;18.97;5.83;;;8.30;99.90;;;;;;5014998;28;20632;-84
2023/05/19 03:49:31;;;;;;;13.87;6.87;;;8.30;99.90;;;;;;5015112;28;20034;-85
2023/05/19 03:51:57;;;;;;;14.13;5.83;;;8.30;99.90;;;;;;5014620;28;20022;-84
2023/05/19 03:54:22;;;;;;;15.97;6.20;;;8.30;99.90;;;;;;5014952;28;20041;-86
2023/05/19 03:56:48;;;;;;;15.93;6.53;;;8.30;99.90;;;;;;5014245;28;20042;-84
2023/05/19 03:59:15;;;;;;;10.93;6.30;;;8.30;99.90;;;;;;5015703;28;20084;-84
2023/05/19 04:01:40;;;;;;;16.03;6.13;;;8.30;99.90;;;;;;5015588;28;20025;-84
2023/05/19 04:04:06;;;;;;;13.90;6.27;;;8.30;99.90;;;;;;5014151;28;20310;-85
2023/05/19 04:06:32;;;;;;;15.80;6.47;;;8.40;99.90;;;;;;5015132;28;20038;-85
2023/05/19 04:08:58;;;;;;;13.47;6.00;;;8.40;99.90;;;;;;5015361;28;20064;-86
2023/05/19 04:11:24;;;;;;;13.93;6.60;;;8.40;99.90;;;;;;5013913;28;20057;-84
2023/05/19 04:13:50;;;;;;;15.10;6.10;;;8.40;99.90;;;;;;5013961;28;20593;-84
2023/05/19 04:16:16;;;;;;;14.10;6.23;;;8.40;99.90;;;;;;5016391;28;20081;-85
2023/05/19 04:18:44;;;;;;;15.40;6.57;;;8.50;99.90;;;;;;5014975;28;20144;-84
2023/05/19 04:21:09;;;;;;;11.17;6.30;;;8.50;99.90;;;;;;5015116;28;20161;-84
2023/05/19 04:23:35;;;;;;;17.27;6.83;;;8.50;99.90;;;;;;5014040;28;20117;-85
2023/05/19 04:26:02;;;;;;;19.20;6.73;;;8.50;99.90;;;;;;5013535;28;20033;-85
2023/05/19 04:28:28;;;;;;;12.47;5.80;;;8.50;99.90;;;;;;5014922;28;20037;-84
2023/05/19 04:30:55;;;;;;;15.30;6.50;;;8.50;99.90;;;;;;4996405;28;20041;-85
2023/05/19 04:33:20;;;;;;;14.43;6.33;;;8.60;99.90;;;;;;5014530;28;20033;-85
2023/05/19 04:35:46;;;;;;;12.47;6.33;;;8.60;99.90;;;;;;5014328;28;20113;-86
2023/05/19 04:38:11;;;;;;;15.60;6.50;;;8.60;99.90;;;;;;5015618;28;20034;-85
2023/05/19 04:40:39;;;;;;;12.93;6.60;;;8.60;99.90;;;;;;5014460;28;20103;-85
2023/05/19 04:43:06;;;;;;;14.33;6.60;;;8.70;99.90;;;;;;5013770;28;20037;-86
2023/05/19 04:45:32;;;;;;;20.17;6.40;;;8.70;99.90;;;;;;5010643;28;20029;-85
2023/05/19 04:47:58;;;;;;;14.97;5.77;;;8.70;99.90;;;;;;5010009;28;20635;-84
2023/05/19 04:50:24;;;;;;;18.87;6.90;;;8.70;99.90;;;;;;5012063;28;20038;-86
2023/05/19 04:52:49;;;;;;;13.67;6.50;;;8.70;99.90;;;;;;5013598;28;20030;-85
2023/05/19 04:55:15;;;;;;;12.60;7.03;;;8.80;99.90;;;;;;5014358;28;20064;-85
2023/05/19 04:57:41;;;;;;;14.87;5.97;;;8.80;99.90;;;;;;5014637;28;20080;-84
2023/05/19 05:00:07;;;;;;;17.90;6.83;;;8.80;99.90;;;;;;5014423;28;20029;-85
2023/05/19 05:02:33;;;;;;;18.57;6.30;;;8.90;99.90;;;;;;5012906;28;20908;-87
2023/05/19 05:04:59;;;;;;;13.63;6.07;;;9.00;99.90;;;;;;5013440;28;20029;-86
2023/05/19 05:07:25;;;;;;;12.17;6.30;;;9.00;99.90;;;;;;5013745;28;20391;-87
2023/05/19 05:09:50;;;;;;;10.10;5.23;;;9.00;99.90;;;;;;5012897;28;20513;-87
2023/05/19 05:12:17;;;;;;;12.93;6.03;;;9.10;99.90;;;;;;5013820;28;20037;-85
2023/05/19 05:14:43;;;;;;;15.47;6.00;;;9.20;99.90;;;;;;5012334;28;20521;-86
2023/05/19 05:17:11;;;;;;;13.03;5.70;;;9.20;99.90;;;;;;5013701;28;20056;-85
2023/05/19 05:19:37;;;;;;;13.97;6.13;;;9.30;99.90;;;;;;5013504;28;20429;-85
2023/05/19 05:22:04;;;;;;;14.90;5.97;;;9.30;99.90;;;;;;5012050;28;20041;-86
2023/05/19 05:24:30;;;;;;;15.57;6.33;;;9.40;99.90;;;;;;5016597;28;20080;-86
2023/05/19 05:26:56;;;;;;;13.17;6.10;;;9.50;99.90;;;;;;5015418;28;20071;-86
2023/05/19 05:29:21;;;;;;;15.63;6.50;;;9.50;99.90;;;;;;5026267;28;20069;-86
2023/05/19 05:31:47;;;;;;;13.60;7.03;;;9.60;99.90;;;;;;5020688;28;20095;-87
2023/05/19 05:34:14;;;;;;;20.07;7.30;;;9.60;99.90;;;;;;5009943;28;20136;-86
2023/05/19 05:36:40;;;;;;;14.60;6.17;;;9.70;99.90;;;;;;5008178;28;20092;-85
2023/05/19 05:39:05;;;;;;;17.83;6.43;;;9.70;99.90;;;;;;5013834;28;20559;-86
2023/05/19 05:41:34;;;;;;;11.33;6.33;;;9.70;99.90;;;;;;5015535;28;20441;-85
2023/05/19 05:44:03;;;;;;;16.07;6.90;;;9.70;99.90;;;;;;5013596;28;20054;-87
2023/05/19 05:46:29;;;;;;;15.23;6.73;;;9.80;99.90;;;;;;5015635;28;21428;-87
2023/05/19 05:48:55;;;;;;;12.87;6.47;;;9.80;99.90;;;;;;5016306;28;20049;-85
2023/05/19 05:51:21;;;;;;;15.83;6.93;;;9.80;99.90;;;;;;5015331;28;20037;-86
2023/05/19 05:53:53;;;;;;;14.30;6.70;;;9.90;99.90;;;;;;5015748;28;20026;-87
2023/05/19 05:56:19;;;;;;;15.50;6.67;;;10.00;99.90;;;;;;5015544;28;20033;-86
2023/05/19 05:58:45;;;;;;;14.93;6.57;;;10.10;99.90;;;;;;5016967;28;20042;-85
2023/05/19 06:01:11;;;;;;;16.80;6.70;;;10.10;99.90;;;;;;5017867;28;20026;-85
2023/05/19 06:03:39;;;;;;;14.50;6.47;;;10.30;99.90;;;;;;5017744;28;20968;-84
2023/05/19 06:06:05;;;;;;;18.17;7.13;;;10.30;99.90;;;;;;5016085;28;20052;-84
2023/05/19 06:08:30;;;;;;;13.00;5.93;;;10.40;99.90;;;;;;5016532;28;20033;-86
2023/05/19 06:10:57;;;;;;;14.23;6.87;;;10.50;99.90;;;;;;5016539;28;20564;-89
2023/05/19 06:13:24;;;;;;;15.00;5.93;;;10.70;99.90;;;;;;5017205;28;20040;-84
2023/05/19 06:15:50;;;;;;;12.33;5.70;;;10.90;99.90;;;;;;5019205;28;20451;-85
2023/05/19 06:18:16;;;;;;;13.80;5.80;;;11.20;99.90;;;;;;5016881;28;20066;-89
2023/05/19 06:20:42;;;;;;;11.47;5.17;;;11.30;99.90;;;;;;4999460;28;20517;-87
2023/05/19 06:23:07;;;;;;;14.07;5.97;;;11.50;99.90;;;;;;5018540;28;20041;-84
2023/05/19 06:25:33;;;;;;;9.73;5.43;;;11.80;99.90;;;;;;5017886;28;20577;-84
2023/05/19 06:27:59;;;;;;;16.45;6.47;;;11.80;99.90;;;;;;5019302;28;20475;-85
2023/05/19 06:30:24;;;;;;;11.80;5.40;;;11.90;99.90;;;;;;5017400;28;20045;-83
2023/05/19 06:32:50;;;;;;;12.03;5.17;;;11.90;99.90;;;;;;5015276;28;20025;-83
2023/05/19 06:35:16;;;;;;;12.83;5.77;;;11.80;99.90;;;;;;5020313;28;20633;-87
2023/05/19 06:37:41;;;;;;;12.50;5.15;;;11.80;99.90;;;;;;5020345;28;20059;-83
2023/05/19 06:40:07;;;;;;;14.03;6.33;;;11.70;99.90;;;;;;5021737;28;20085;-83
2023/05/19 06:42:33;;;;;;;11.93;6.10;;;11.60;99.90;;;;;;5017677;28;20478;-86
2023/05/19 06:44:58;;;;;;;14.93;6.13;;;11.60;99.90;;;;;;5015945;28;20041;-87
2023/05/19 06:47:24;;;;;;;12.95;6.10;;;11.50;99.90;;;;;;5016829;28;20065;-86
2023/05/19 06:49:53;;;;;;;12.68;6.10;;;11.50;99.90;;;;;;5019832;28;20065;-86
2023/05/19 06:52:22;;;;;;;12.95;5.57;;;11.40;99.90;;;;;;5030060;28;20076;-86
2023/05/19 06:54:48;;;;;;;10.73;7.00;;;11.30;99.90;;;;;;5029633;28;20030;-88
2023/05/19 06:57:14;;;;;;;13.30;6.10;;;11.30;99.90;;;;;;5029800;28;20030;-84
2023/05/19 06:59:44;;;;;;;13.13;5.75;;;11.40;99.90;;;;;;5028610;28;20100;-86
2023/05/19 07:02:09;;;;;;;11.60;5.43;;;11.60;99.90;;;;;;5018778;28;20030;-89
2023/05/19 07:04:35;;;;;;;14.80;5.57;;;11.70;99.90;;;;;;5017461;28;20037;-84
2023/05/19 07:07:01;;;;;;;12.93;5.65;;;11.80;99.90;;;;;;5020378;28;20377;-87
2023/05/19 07:09:27;;;;;;;13.37;5.67;;;11.90;99.90;;;;;;5013689;28;20038;-84
2023/05/19 07:11:52;;;;;;;11.95;5.93;;;12.00;99.90;;;;;;5011180;28;20036;-83
2023/05/19 07:14:19;;;;;;;12.00;5.90;;;12.00;99.90;;;;;;4995474;28;20037;-82
2023/05/19 07:16:45;;;;;;;12.60;4.97;;;12.10;99.90;;;;;;4994485;28;20113;-85
2023/05/19 07:19:10;;;;;;;8.25;4.78;;;12.20;99.90;;;;;;5013450;28;20116;-84
2023/05/19 07:21:36;;;;;;;12.18;5.32;;;12.30;99.90;;;;;;5013337;28;20117;-84
2023/05/19 07:24:01;;;;;;;13.10;5.43;;;12.40;99.90;;;;;;5011243;28;20022;-83
2023/05/19 07:26:28;;;;;;;8.88;4.80;;;12.60;99.90;;;;;;5012909;28;20037;-82
2023/05/19 07:28:53;;;;;;;7.43;5.18;;;12.80;99.90;;;;;;5013296;28;20152;-84
2023/05/19 07:31:19;;;;;;;9.18;5.03;;;12.80;99.90;;;;;;5014268;28;20176;-83
2023/05/19 07:33:45;;;;;;;13.05;5.40;;;12.90;99.90;;;;;;5012712;28;20108;-82
2023/05/19 07:36:11;;;;;;;11.73;5.28;;;13.10;99.90;;;;;;5012468;28;20109;-85
2023/05/19 07:38:36;;;;;;;8.82;4.60;;;13.20;99.90;;;;;;5013269;28;20113;-84
2023/05/19 07:41:02;;;;;;;9.02;4.95;;;13.30;99.90;;;;;;5013255;28;20044;-84
2023/05/19 07:43:30;;;;;;;14.63;5.22;;;13.30;99.90;;;;;;5012417;28;20093;-83
2023/05/19 07:45:55;;;;;;;11.23;4.90;;;13.20;99.90;;;;;;5012112;28;20021;-84
2023/05/19 07:48:24;;;;;;;8.48;4.93;;;13.20;99.90;;;;;;5012670;28;20021;-85
2023/05/19 07:50:50;;;;;;;12.30;5.30;;;13.20;99.90;;;;;;5015293;28;20049;-84
2023/05/19 07:53:16;;;;;;;9.82;4.40;;;13.30;99.90;;;;;;5013607;28;20108;-85
2023/05/19 07:55:41;;;;;;;10.10;5.05;;;13.10;99.90;;;;;;5014061;28;20426;-87
2023/05/19 07:58:07;;;;;;;10.57;4.90;;;13.00;99.90;;;;;;5013839;28;20029;-84
2023/05/19 08:00:32;;;;;;;13.05;5.35;;;12.90;99.90;;;;;;5013372;28;20036;-83
2023/05/19 08:03:00;;;;;;;11.00;5.68;;;12.80;99.90;;;;;;5012689;28;20029;-82
2023/05/19 08:05:25;;;;;;;9.65;5.97;;;12.80;99.90;;;;;;5012708;28;20037;-83
2023/05/19 08:07:51;;;;;;;12.45;5.70;;;12.90;99.90;;;;;;5013916;28;20106;-83
2023/05/19 08:10:17;;;;;;;10.93;5.55;;;13.10;99.90;;;;;;5014562;28;20139;-85
2023/05/19 08:12:45;;;;;;;11.00;5.15;;;13.10;99.90;;;;;;5012695;28;20556;-83
2023/05/19 08:15:11;;;;;;;11.88;6.32;;;13.30;99.90;;;;;;4995160;28;20033;-83
2023/05/19 08:17:36;;;;;;;12.05;5.45;;;13.30;99.90;;;;;;5012195;28;20026;-84
2023/05/19 08:20:05;;;;;;;12.43;5.47;;;13.30;99.90;;;;;;5012012;28;20033;-83
2023/05/19 08:22:30;;;;;;;9.73;5.15;;;13.30;99.90;;;;;;5012815;28;20033;-83
2023/05/19 08:24:56;;;;;;;6.88;5.22;;;13.30;99.90;;;;;;5011414;28;20076;-86
2023/05/19 08:27:22;;;;;;;12.00;5.22;;;13.20;99.90;;;;;;5013137;28;20112;-85
2023/05/19 08:29:48;;;;;;;9.07;5.22;;;13.10;99.90;;;;;;5012198;28;20064;-83
2023/05/19 08:32:13;;;;;;;9.98;5.80;;;13.10;99.90;;;;;;5012137;28;20493;-83
2023/05/19 08:34:40;;;;;;;9.27;5.15;;;13.10;99.90;;;;;;5012766;28;20812;-85
2023/05/19 08:37:06;;;;;;;10.43;5.03;;;13.10;99.90;;;;;;5012637;28;20060;-83
2023/05/19 08:39:33;;;;;;;14.45;5.78;;;13.10;99.90;;;;;;5012663;28;20032;-84
2023/05/19 08:41:59;;;;;;;10.60;5.55;;;13.20;99.90;;;;;;5012341;28;20140;-83
2023/05/19 08:44:25;;;;;;;8.63;5.20;;;13.30;99.90;;;;;;5012577;28;20029;-84
2023/05/19 08:46:54;;;;;;;10.05;5.38;;;13.30;99.90;;;;;;5012877;28;20044;-84
2023/05/19 08:49:29;;;;;;;10.63;4.82;;;13.30;99.90;;;;;;5011516;28;20030;-85
2023/05/19 08:52:05;;;;;;;9.52;5.05;;;13.30;99.90;;;;;;4992064;28;20103;-85
2023/05/19 08:54:43;;;;;;;8.20;5.20;;;13.20;99.90;;;;;;5011016;28;20034;-84
2023/05/19 08:57:09;;;;;;;10.02;5.03;;;13.10;99.90;;;;;;5012261;28;20381;-86
2023/05/19 08:59:35;;;;;;;7.72;5.10;;;13.20;99.90;;;;;;5016377;28;20473;-87
2023/05/19 09:02:02;;;;;;;15.65;5.28;;;13.20;99.90;;;;;;5015074;28;20380;-84
2023/05/19 09:04:28;;;;;;;11.40;4.80;;;13.30;99.90;;;;;;5016023;28;20037;-84
2023/05/19 09:06:53;;;;;;;6.63;4.60;;;13.40;99.90;;;;;;5016641;28;20033;-84
2023/05/19 09:09:19;;;;;;;7.18;4.80;;;13.50;99.90;;;;;;5015309;28;20512;-84
2023/05/19 09:11:45;;;;;;;10.73;5.18;;;13.50;99.90;;;;;;5015325;28;20032;-85
2023/05/19 09:14:11;;;;;;;9.75;5.40;;;13.60;99.90;;;;;;5016305;28;20079;-84
2023/05/19 09:16:38;;;;;;;11.18;5.43;;;13.60;99.90;;;;;;5016440;28;20097;-83
2023/05/19 09:19:03;;;;;;;9.38;4.80;;;13.60;99.90;;;;;;5015112;28;20033;-84
2023/05/19 09:21:30;;;;;;;10.60;5.15;;;13.50;99.90;;;;;;5015602;28;20033;-84
2023/05/19 09:23:57;;;;;;;10.02;5.47;;;13.40;99.90;;;;;;5015533;28;20033;-85
2023/05/19 09:26:23;;;;;;;7.38;4.72;;;13.30;99.90;;;;;;5015740;28;20037;-84
2023/05/19 09:28:49;;;;;;;11.40;5.35;;;13.30;99.90;;;;;;5016159;28;20096;-85
2023/05/19 09:31:15;;;;;;;7.65;4.65;;;13.20;99.90;;;;;;5014715;28;20045;-84
2023/05/19 09:33:41;;;;;;;9.43;4.65;;;13.20;99.90;;;;;;5013728;28;20036;-83
2023/05/19 09:36:09;;;;;;;12.18;5.15;;;13.40;99.90;;;;;;5014850;28;20025;-84
2023/05/19 09:38:36;;;;;;;9.48;6.70;;;13.50;99.90;;;;;;5015442;28;20030;-84
2023/05/19 09:41:04;;;;;;;8.48;5.25;;;13.50;99.90;;;;;;5015359;28;20125;-86
2023/05/19 09:43:32;;;;;;;8.25;5.40;;;13.50;99.90;;;;;;5014379;28;20025;-86
2023/05/19 09:46:02;;;;;;;11.82;5.05;;;13.60;99.90;;;;;;5014387;28;20047;-83
2023/05/19 09:48:27;;;;;;;11.18;5.50;;;13.60;99.90;;;;;;5013948;28;20029;-84
2023/05/19 09:50:53;;;;;;;13.73;6.20;;;13.70;99.90;;;;;;5014003;28;20048;-86
2023/05/19 09:53:21;;;;;;;9.60;5.57;;;13.70;99.90;;;;;;5013701;28;20026;-85
2023/05/19 09:55:47;;;;;;;10.43;5.15;;;13.80;99.90;;;;;;5014113;28;20040;-83
2023/05/19 09:58:23;;;;;;;7.63;4.90;;;13.80;99.90;;;;;;5013818;28;20417;-83
2023/05/19 10:00:49;;;;;;;9.60;5.20;;;14.00;99.90;;;;;;4995752;28;20034;-83
2023/05/19 10:03:17;;;;;;;8.60;4.50;;;14.20;99.90;;;;;;5013950;28;20017;-85
2023/05/19 10:05:43;;;;;;;11.80;5.72;;;14.30;99.90;;;;;;5015314;28;20030;-85
2023/05/19 10:08:10;;;;;;;8.95;4.95;;;14.40;99.90;;;;;;5016359;28;20163;-83
2023/05/19 10:10:37;;;;;;;9.02;5.18;;;14.20;99.90;;;;;;5014941;28;20072;-83
2023/05/19 10:13:03;;;;;;;9.98;5.47;;;14.20;99.90;;;;;;5009454;28;20037;-86
2023/05/19 10:15:29;;;;;;;9.02;5.47;;;14.10;99.90;;;;;;5007545;28;20029;-86
2023/05/19 10:17:55;;;;;;;8.93;5.50;;;13.90;99.90;;;;;;5009466;28;20556;-83
2023/05/19 10:20:21;;;;;;;11.05;6.80;;;13.70;99.90;;;;;;5008964;28;20052;-83
2023/05/19 10:22:47;;;;;;;9.75;7.38;;;13.60;99.90;;;;;;5006419;28;20080;-84
2023/05/19 10:25:15;;;;;;;9.35;6.07;;;13.40;99.90;;;;;;5007871;28;20383;-85
2023/05/19 10:27:45;;;;;;;8.43;6.40;;;13.40;99.90;;;;;;5006869;28;20032;-85
2023/05/19 10:30:17;;;;;;;11.63;6.95;;;13.30;99.90;;;;;;5008586;28;20048;-84
2023/05/19 10:32:45;;;;;;;9.73;5.68;;;13.20;99.90;;;;;;5007961;28;20091;-86
2023/05/19 10:35:21;;;;;;;9.45;5.88;;;13.20;99.90;;;;;;5008346;28;20032;-84
2023/05/19 10:38:23;;;;;;;8.40;5.47;;;13.20;99.90;;;;;;5007802;28;20224;-85
2023/05/19 10:41:05;;;;;;;8.63;5.63;;;13.20;99.90;;;;;;5001352;28;20076;-85
2023/05/19 10:43:47;;;;;;;8.55;5.88;;;13.10;99.90;;;;;;5006614;28;20787;-86
2023/05/19 10:46:13;;;;;;;12.93;10.23;;;13.10;99.90;;;;;;5007317;28;20112;-85
2023/05/19 10:48:43;;;;;;;10.23;7.35;;;13.10;99.90;;;;;;5006847;28;20025;-84
2023/05/19 10:51:10;;;;;;;10.80;6.93;;;13.00;99.90;;;;;;5004989;28;20493;-85
2023/05/19 10:53:40;;;;;;;10.48;6.65;;;12.90;99.90;;;;;;5007152;28;20128;-87
2023/05/19 10:56:06;;;;;;;9.63;6.57;;;12.90;99.90;;;;;;5009000;28;20101;-83
2023/05/19 10:58:44;;;;;;;9.30;6.38;;;12.90;99.90;;;;;;5006488;28;20989;-86
2023/05/19 11:01:23;;;;;;;11.32;6.75;;;12.90;99.90;;;;;;5005988;28;20030;-85
2023/05/19 11:03:53;;;;;;;12.63;7.72;;;12.80;99.90;;;;;;5007130;28;20506;-83
2023/05/19 11:06:20;;;;;;;11.35;7.35;;;12.80;99.90;;;;;;5009061;28;20040;-83
2023/05/19 11:08:46;;;;;;;9.88;6.50;;;12.80;99.90;;;;;;5005558;28;20128;-84
2023/05/19 11:11:16;;;;;;;9.60;6.93;;;12.90;99.90;;;;;;5007907;28;20388;-86
2023/05/19 11:13:53;;;;;;;10.70;6.93;;;12.90;99.90;;;;;;5006398;28;20030;-82
2023/05/19 11:16:30;;;;;;;11.23;8.55;;;13.00;99.90;;;;;;5006701;28;20235;-85
2023/05/19 11:18:58;;;;;;;12.55;7.53;;;13.00;99.90;;;;;;5005385;28;20036;-85
2023/05/19 11:21:39;;;;;;;11.52;7.95;;;13.10;99.90;;;;;;5005711;28;20041;-83
2023/05/19 11:24:07;;;;;;;11.52;7.95;;;13.20;99.90;;;;;;5007795;28;20042;-85
2023/05/19 11:26:43;;;;;;;9.82;7.00;;;13.40;99.90;;;;;;5008631;28;20060;-83
2023/05/19 11:29:09;;;;;;;9.65;7.03;;;13.70;99.90;;;;;;5005801;28;20072;-84
2023/05/19 11:31:35;;;;;;;9.48;6.68;;;13.70;99.90;;;;;;5007112;28;20033;-86
2023/05/19 11:34:01;;;;;;;9.48;6.40;;;13.80;99.90;;;;;;5005183;28;20041;-83
2023/05/19 11:36:27;;;;;;;8.18;6.03;;;13.80;99.90;;;;;;5005475;28;20038;-87
2023/05/19 11:38:54;;;;;;;11.80;6.75;;;13.90;99.90;;;;;;5004680;28;20040;-85
2023/05/19 11:41:20;;;;;;;7.97;6.22;;;13.90;99.90;;;;;;5008830;28;20040;-84
2023/05/19 11:43:46;;;;;;;9.70;6.50;;;13.90;99.90;;;;;;5005002;28;20457;-86
2023/05/19 11:46:12;;;;;;;9.25;6.47;;;14.00;99.90;;;;;;5006353;28;20053;-83
2023/05/19 11:48:38;;;;;;;12.32;6.82;;;14.00;99.90;;;;;;5004719;28;20771;-86
2023/05/19 11:51:05;;;;;;;11.20;7.00;;;14.10;99.90;;;;;;5006424;28;20049;-86
2023/05/19 11:53:34;;;;;;;9.88;6.88;;;14.10;99.90;;;;;;5007440;28;20060;-83
2023/05/19 11:56:02;;;;;;;9.98;6.82;;;14.10;99.90;;;;;;5006064;28;20143;-83
2023/05/19 11:58:28;;;;;;;9.20;7.00;;;14.10;99.90;;;;;;5005066;28;20034;-83
2023/05/19 12:00:53;;;;;;;9.77;7.03;;;14.10;99.90;;;;;;5007481;28;20037;-83
2023/05/19 12:03:26;;;;;;;10.32;6.95;;;14.10;99.90;;;;;;4989430;28;20034;-83
2023/05/19 12:05:52;;;;;;;10.57;7.35;;;13.90;99.90;;;;;;4987547;28;21629;-83
2023/05/19 12:08:18;;;;;;;9.60;7.90;;;13.90;99.90;;;;;;5002742;28;20044;-83
2023/05/19 12:10:48;;;;;;;14.75;8.00;;;13.90;99.90;;;;;;5003932;28;21351;-84
2023/05/19 12:13:14;;;;;;;11.05;7.00;;;13.90;99.90;;;;;;5004189;28;20026;-86
2023/05/19 12:15:39;;;;;;;10.60;7.22;;;13.90;99.90;;;;;;5003634;28;20083;-86
2023/05/19 12:18:05;;;;;;;11.00;7.47;;;13.80;99.90;;;;;;5003261;28;20026;-84
2023/05/19 12:20:31;;;;;;;14.60;9.02;;;13.80;99.90;;;;;;5004663;28;20066;-86
2023/05/19 12:22:59;;;;;;;11.90;8.23;;;13.80;99.90;;;;;;5004147;28;20904;-85
2023/05/19 12:25:24;;;;;;;10.98;7.75;;;13.70;99.90;;;;;;5005612;28;20460;-86
2023/05/19 12:27:52;;;;;;;10.88;8.20;;;13.80;99.90;;;;;;5004491;28;20044;-83
2023/05/19 12:30:18;;;;;;;12.98;8.48;;;13.80;99.90;;;;;;5006922;28;20033;-84
2023/05/19 12:32:45;;;;;;;16.83;8.32;;;13.80;99.90;;;;;;4991951;28;20033;-87
2023/05/19 12:35:11;;;;;;;10.13;7.05;;;13.80;99.90;;;;;;5011332;28;20038;-85
2023/05/19 12:37:41;;;;;;;12.20;7.43;;;13.70;99.90;;;;;;5011053;28;20029;-85
2023/05/19 12:40:08;;;;;;;13.68;9.40;;;13.80;99.90;;;;;;5011817;28;20037;-85
2023/05/19 12:42:34;;;;;;;13.02;8.68;;;13.80;99.90;;;;;;5011158;28;20036;-85
2023/05/19 12:45:03;;;;;;;11.70;7.72;;;13.70;99.90;;;;;;5010286;28;20118;-86